Time;durP1;ratioP1;P1;durP2;ratioP2;P2;SDS_P1;SDS_P2;PMS_P1;PMS_P2;Temp;Humidity;BMP_temperature;BMP_pressure;BME280_temperature;BME280_humidity;BME280_pressure;Samples;Min_cycle;Max_cycle;Signal;HPM_P1;HPM_P2
2023/07/08 00:01:44;;;;;;;8.93;5.32;;;563.90;2432.00;;;;;;5073834;28;20047;-77
2023/07/08 00:04:10;;;;;;;9.50;5.70;;;563.90;2432.00;;;;;;5073852;28;20029;-78
2023/07/08 00:06:36;;;;;;;9.07;5.57;;;563.90;2432.00;;;;;;5073720;28;20063;-78
2023/07/08 00:09:01;;;;;;;10.43;5.80;;;563.90;2432.00;;;;;;5073447;28;20428;-77
2023/07/08 00:11:29;;;;;;;9.13;5.80;;;563.90;2432.00;;;;;;5074765;28;20479;-77
2023/07/08 00:13:54;;;;;;;10.05;5.50;;;563.90;2432.00;;;;;;5074590;28;20028;-78
2023/07/08 00:16:20;;;;;;;8.40;4.97;;;564.00;2432.00;;;;;;5073263;28;20028;-76
2023/07/08 00:18:48;;;;;;;10.93;5.70;;;564.00;2432.00;;;;;;5073453;28;20064;-77
2023/07/08 00:21:16;;;;;;;7.90;6.00;;;564.00;2432.00;;;;;;5073438;28;20035;-76
2023/07/08 00:23:47;;;;;;;13.55;6.18;;;564.10;2432.00;;;;;;5072964;28;20464;-78
2023/07/08 00:26:22;;;;;;;9.05;5.78;;;564.00;2432.00;;;;;;5074730;28;20031;-78
2023/07/08 00:28:49;;;;;;;8.70;6.20;;;564.00;2432.00;;;;;;5073673;28;20111;-76
2023/07/08 00:31:14;;;;;;;9.90;5.00;;;564.00;2432.00;;;;;;5073533;28;20464;-77
2023/07/08 00:33:40;;;;;;;9.43;5.53;;;564.10;2432.00;;;;;;5073102;28;20107;-77
2023/07/08 00:36:15;;;;;;;8.82;5.60;;;564.10;2432.00;;;;;;5072383;28;20028;-75
2023/07/08 00:38:44;;;;;;;7.40;5.30;;;564.10;2432.00;;;;;;5072684;28;20051;-78
2023/07/08 00:41:33;;;;;;;9.05;5.60;;;564.10;2432.00;;;;;;5072829;28;20131;-77
2023/07/08 00:44:00;;;;;;;8.57;5.90;;;564.10;2432.00;;;;;;5074356;28;20129;-76
2023/07/08 00:46:31;;;;;;;7.93;5.57;;;564.10;2432.00;;;;;;5073034;28;20086;-76
2023/07/08 00:49:34;;;;;;;8.25;5.38;;;564.10;2432.00;;;;;;5072966;28;20039;-76
2023/07/08 00:52:20;;;;;;;9.77;5.35;;;564.10;2432.00;;;;;;5073782;28;20111;-76
2023/07/08 00:54:49;;;;;;;14.93;6.57;;;563.90;2432.00;;;;;;5073781;28;20429;-76
2023/07/08 00:57:15;;;;;;;9.38;5.63;;;563.90;2432.00;;;;;;5072519;28;20078;-76
2023/07/08 01:00:03;;;;;;;11.38;5.72;;;563.90;2432.00;;;;;;5074293;28;20040;-77
2023/07/08 01:02:31;;;;;;;8.30;5.53;;;563.80;2432.00;;;;;;5092920;28;20101;-76
2023/07/08 01:05:11;;;;;;;7.65;4.95;;;563.80;2432.00;;;;;;5093949;28;20051;-76
2023/07/08 01:07:41;;;;;;;8.45;5.30;;;563.80;2432.00;;;;;;5093080;28;20024;-77
2023/07/08 01:10:19;;;;;;;7.32;5.20;;;563.80;2432.00;;;;;;5093123;28;20040;-77
2023/07/08 01:12:52;;;;;;;8.20;5.30;;;563.80;2432.00;;;;;;5092658;28;20485;-76
2023/07/08 01:15:21;;;;;;;9.45;5.60;;;563.80;2432.00;;;;;;5092792;28;20071;-75
2023/07/08 01:17:50;;;;;;;9.93;5.40;;;563.80;2432.00;;;;;;5092855;28;20031;-77
2023/07/08 01:20:16;;;;;;;9.32;5.55;;;563.80;2432.00;;;;;;5092418;28;20036;-78
2023/07/08 01:22:42;;;;;;;12.18;5.43;;;563.70;2432.00;;;;;;5092684;28;20031;-76
2023/07/08 01:25:10;;;;;;;8.13;5.28;;;563.70;2432.00;;;;;;5092694;28;20025;-76
2023/07/08 01:27:39;;;;;;;8.05;5.78;;;563.70;2432.00;;;;;;5093870;28;20016;-75
2023/07/08 01:30:06;;;;;;;10.80;5.40;;;563.70;2432.00;;;;;;5092912;28;20028;-75
2023/07/08 01:32:36;;;;;;;9.43;5.47;;;563.70;2432.00;;;;;;5092304;28;20032;-77
2023/07/08 01:35:03;;;;;;;8.43;5.80;;;563.70;2432.00;;;;;;5092689;28;20072;-78
2023/07/08 01:37:41;;;;;;;11.57;6.97;;;563.70;2432.00;;;;;;5094110;28;20067;-76
2023/07/08 01:40:35;;;;;;;12.93;6.20;;;563.70;2432.00;;;;;;5092504;28;20036;-76
2023/07/08 01:43:03;;;;;;;10.95;5.80;;;563.60;2432.00;;;;;;5090159;28;20123;-78
2023/07/08 01:45:34;;;;;;;8.52;5.40;;;563.70;2432.00;;;;;;5093377;28;20035;-76
2023/07/08 01:48:05;;;;;;;8.57;5.88;;;563.70;2432.00;;;;;;5093680;28;20024;-76
2023/07/08 01:50:33;;;;;;;7.78;6.00;;;563.60;2432.00;;;;;;5092703;28;20508;-77
2023/07/08 01:53:02;;;;;;;9.45;5.88;;;563.60;2432.00;;;;;;5092862;28;20024;-77
2023/07/08 01:55:28;;;;;;;15.30;6.30;;;563.60;2432.00;;;;;;5092067;28;20028;-79
2023/07/08 01:57:54;;;;;;;9.00;5.72;;;563.60;2432.00;;;;;;5093774;28;20024;-76
2023/07/08 02:00:21;;;;;;;8.77;5.50;;;563.60;2432.00;;;;;;5091979;28;20036;-77
2023/07/08 02:02:48;;;;;;;9.88;5.45;;;563.50;2432.00;;;;;;5092484;28;20035;-77
2023/07/08 02:05:14;;;;;;;19.48;6.97;;;563.50;2432.00;;;;;;5092422;28;20020;-77
2023/07/08 02:07:40;;;;;;;9.02;5.82;;;563.50;2432.00;;;;;;5093414;28;20031;-77
2023/07/08 02:10:06;;;;;;;11.73;6.00;;;563.50;2432.00;;;;;;5091705;28;20131;-77
2023/07/08 02:12:32;;;;;;;11.45;6.03;;;563.30;2432.00;;;;;;5092341;28;20032;-77
2023/07/08 02:15:00;;;;;;;13.50;5.78;;;538.50;2406.40;;;;;;5095772;28;20020;-77
2023/07/08 02:17:28;;;;;;;8.88;5.90;;;563.40;2432.00;;;;;;5094221;28;20016;-77
2023/07/08 02:19:55;;;;;;;11.93;6.13;;;563.40;2432.00;;;;;;5092085;28;20123;-77
2023/07/08 02:22:21;;;;;;;14.85;6.30;;;563.40;2432.00;;;;;;5096396;28;20028;-78
2023/07/08 02:24:47;;;;;;;11.63;6.05;;;563.40;2432.00;;;;;;5095740;28;20028;-78
2023/07/08 02:27:14;;;;;;;14.88;6.78;;;563.30;2432.00;;;;;;5096556;28;20405;-77
2023/07/08 02:29:39;;;;;;;19.98;6.18;;;563.30;2432.00;;;;;;5095601;28;20114;-76
2023/07/08 02:32:06;;;;;;;9.23;5.30;;;563.30;2432.00;;;;;;5093958;28;20067;-77
2023/07/08 02:34:32;;;;;;;11.30;5.72;;;563.30;2432.00;;;;;;5076915;28;20115;-78
2023/07/08 02:36:59;;;;;;;12.25;6.45;;;563.30;2432.00;;;;;;5074501;28;20420;-77
2023/07/08 02:39:24;;;;;;;8.65;5.97;;;563.40;2432.00;;;;;;5075406;28;20174;-77
2023/07/08 02:41:50;;;;;;;8.05;5.53;;;563.30;2432.00;;;;;;5076519;28;20056;-77
2023/07/08 02:44:16;;;;;;;10.35;5.60;;;563.30;2432.00;;;;;;5075069;28;20032;-77
2023/07/08 02:46:42;;;;;;;11.10;5.53;;;563.20;2432.00;;;;;;5075251;28;20028;-77
2023/07/08 02:49:07;;;;;;;10.27;5.85;;;563.20;2432.00;;;;;;5076599;28;20434;-77
2023/07/08 02:51:33;;;;;;;10.23;6.13;;;563.20;2432.00;;;;;;5074885;28;20028;-77
2023/07/08 02:53:59;;;;;;;10.30;6.20;;;563.20;2432.00;;;;;;5075167;28;20111;-78
2023/07/08 02:56:26;;;;;;;11.25;5.85;;;563.20;2432.00;;;;;;5095118;28;20024;-76
2023/07/08 02:58:53;;;;;;;10.98;5.55;;;563.20;2432.00;;;;;;5112341;28;20119;-77
2023/07/08 03:01:19;;;;;;;7.50;5.10;;;563.20;2432.00;;;;;;5096201;28;20463;-76
2023/07/08 03:03:47;;;;;;;8.85;5.60;;;563.20;2432.00;;;;;;5111933;28;20036;-77
2023/07/08 03:06:14;;;;;;;7.65;5.13;;;563.20;2432.00;;;;;;5112038;28;20024;-77
2023/07/08 03:08:40;;;;;;;9.50;5.60;;;563.20;2432.00;;;;;;5112045;28;20404;-78
2023/07/08 03:11:08;;;;;;;8.85;5.80;;;563.20;2432.00;;;;;;5111846;28;20028;-78
2023/07/08 03:13:34;;;;;;;9.10;5.78;;;563.20;2432.00;;;;;;5112126;28;20035;-77
2023/07/08 03:16:01;;;;;;;9.75;6.20;;;563.20;2432.00;;;;;;5112049;28;20024;-78
2023/07/08 03:18:28;;;;;;;11.73;5.93;;;563.20;2432.00;;;;;;5111606;28;20077;-78
2023/07/08 03:20:55;;;;;;;7.68;5.65;;;563.30;2432.00;;;;;;5111954;28;20051;-77
2023/07/08 03:23:23;;;;;;;9.02;5.47;;;563.20;2432.00;;;;;;5112151;28;20446;-77
2023/07/08 03:25:49;;;;;;;9.63;5.28;;;563.30;2432.00;;;;;;5095907;28;20058;-77
2023/07/08 03:28:16;;;;;;;9.65;5.80;;;563.30;2432.00;;;;;;5111759;28;20357;-77
2023/07/08 03:30:43;;;;;;;13.07;5.72;;;563.20;2432.00;;;;;;5111609;28;20487;-79
2023/07/08 03:33:10;;;;;;;9.82;5.68;;;563.20;2432.00;;;;;;5094911;28;20031;-77
2023/07/08 03:35:38;;;;;;;8.88;5.28;;;563.20;2432.00;;;;;;5095847;28;20033;-77
2023/07/08 03:38:04;;;;;;;9.57;5.45;;;563.20;2432.00;;;;;;5111616;28;20027;-76
2023/07/08 03:40:31;;;;;;;7.80;5.65;;;563.20;2432.00;;;;;;5095504;28;20062;-78
2023/07/08 03:42:57;;;;;;;6.60;5.13;;;563.20;2432.00;;;;;;5111588;28;20460;-77
2023/07/08 03:45:25;;;;;;;8.43;5.72;;;563.20;2432.00;;;;;;5111682;28;20026;-76
2023/07/08 03:47:51;;;;;;;8.85;5.72;;;563.20;2432.00;;;;;;5111662;28;20077;-77
2023/07/08 03:50:22;;;;;;;8.65;5.97;;;563.20;2432.00;;;;;;5095908;28;20043;-78
2023/07/08 03:52:50;;;;;;;7.97;5.03;;;538.50;2406.40;;;;;;5110542;28;20027;-77
2023/07/08 03:55:16;;;;;;;9.32;5.68;;;538.50;2406.40;;;;;;5111222;28;20028;-77
2023/07/08 03:57:42;;;;;;;10.25;5.43;;;538.50;2406.40;;;;;;5095730;28;20164;-77
2023/07/08 04:00:14;;;;;;;10.13;5.22;;;538.50;2406.40;;;;;;5095086;28;20032;-77
2023/07/08 04:02:42;;;;;;;12.52;6.13;;;538.50;2406.40;;;;;;5111671;28;20034;-77
2023/07/08 04:05:16;;;;;;;9.63;5.88;;;538.50;2406.40;;;;;;5111112;28;20415;-77
2023/07/08 04:07:42;;;;;;;7.82;4.88;;;538.50;2406.40;;;;;;5110795;28;20024;-76
2023/07/08 04:10:09;;;;;;;11.88;5.88;;;538.50;2406.40;;;;;;5110121;28;20048;-78
2023/07/08 04:12:35;;;;;;;8.77;5.95;;;538.50;2406.40;;;;;;5095578;28;20039;-77
2023/07/08 04:15:01;;;;;;;8.80;6.32;;;563.20;2432.00;;;;;;5094748;28;20020;-77
2023/07/08 04:17:27;;;;;;;10.27;5.88;;;563.20;2432.00;;;;;;5110764;28;20035;-77
2023/07/08 04:19:56;;;;;;;11.73;5.95;;;563.20;2432.00;;;;;;5110823;28;20036;-77
2023/07/08 04:22:23;;;;;;;7.90;5.53;;;563.20;2432.00;;;;;;5110444;28;20024;-76
2023/07/08 04:24:50;;;;;;;11.50;5.60;;;563.20;2432.00;;;;;;5095305;28;20467;-77
2023/07/08 04:27:17;;;;;;;13.02;6.13;;;563.40;2432.00;;;;;;5110443;28;20056;-76
2023/07/08 04:29:43;;;;;;;9.68;5.70;;;538.50;2406.40;;;;;;5095060;28;20035;-76
2023/07/08 04:32:10;;;;;;;8.48;5.43;;;563.30;2432.00;;;;;;5110646;28;20024;-78
2023/07/08 04:34:35;;;;;;;9.43;5.40;;;563.30;2432.00;;;;;;5094234;28;20426;-77
2023/07/08 04:37:01;;;;;;;9.23;5.93;;;563.40;2432.00;;;;;;5094645;28;20059;-75
2023/07/08 04:39:27;;;;;;;9.27;5.85;;;563.40;2432.00;;;;;;5094826;28;20422;-77
2023/07/08 04:41:53;;;;;;;11.07;5.28;;;563.40;2432.00;;;;;;5094577;28;20073;-77
2023/07/08 04:44:19;;;;;;;8.55;5.55;;;563.50;2432.00;;;;;;5110131;28;20047;-76
2023/07/08 04:46:55;;;;;;;7.93;6.03;;;563.50;2432.00;;;;;;5110332;28;20024;-77
2023/07/08 04:49:22;;;;;;;11.88;5.45;;;563.50;2432.00;;;;;;5094305;28;20050;-77
2023/07/08 04:51:48;;;;;;;11.07;6.18;;;563.50;2432.00;;;;;;5110258;28;20116;-76
2023/07/08 04:54:14;;;;;;;13.52;5.95;;;563.50;2432.00;;;;;;5094437;28;20051;-78
2023/07/08 04:56:48;;;;;;;8.25;5.35;;;563.50;2432.00;;;;;;5094371;28;20028;-78
2023/07/08 04:59:18;;;;;;;8.98;5.60;;;563.60;2432.00;;;;;;5110135;28;20032;-77
2023/07/08 05:01:44;;;;;;;10.00;5.38;;;563.60;2432.00;;;;;;5094315;28;20020;-76
2023/07/08 05:04:13;;;;;;;7.05;5.13;;;563.60;2432.00;;;;;;5109557;28;20020;-76
2023/07/08 05:06:39;;;;;;;8.48;5.65;;;563.60;2432.00;;;;;;5094238;28;20020;-76
2023/07/08 05:09:05;;;;;;;9.52;5.75;;;563.60;2432.00;;;;;;5109593;28;20181;-77
2023/07/08 05:11:31;;;;;;;9.45;5.93;;;563.60;2432.00;;;;;;5093855;28;20464;-77
2023/07/08 05:13:57;;;;;;;8.82;5.80;;;563.60;2432.00;;;;;;5094180;28;20028;-77
2023/07/08 05:16:23;;;;;;;9.20;5.70;;;563.70;2432.00;;;;;;5109294;28;20024;-77
2023/07/08 05:18:49;;;;;;;9.68;5.60;;;563.80;2432.00;;;;;;5117068;28;20035;-77
2023/07/08 05:21:17;;;;;;;11.23;5.95;;;563.70;2432.00;;;;;;5109729;28;20027;-76
2023/07/08 05:23:44;;;;;;;9.93;5.10;;;563.70;2432.00;;;;;;5109373;28;20077;-76
2023/07/08 05:26:10;;;;;;;10.85;5.70;;;563.80;2432.00;;;;;;5109633;28;20024;-77
2023/07/08 05:28:36;;;;;;;10.32;6.07;;;563.90;2432.00;;;;;;5093937;28;20020;-77
2023/07/08 05:31:01;;;;;;;10.32;6.07;;;564.00;2432.00;;;;;;5109320;28;20414;-78
2023/07/08 05:33:30;;;;;;;12.02;5.53;;;564.00;2432.00;;;;;;5109584;28;20034;-77
2023/07/08 05:35:56;;;;;;;11.52;6.25;;;564.00;2432.00;;;;;;5094068;28;20024;-77
2023/07/08 05:38:23;;;;;;;10.80;5.80;;;564.10;2432.00;;;;;;5109204;28;20439;-77
2023/07/08 05:40:57;;;;;;;11.00;5.85;;;564.10;2432.00;;;;;;5109609;28;20032;-77
2023/07/08 05:43:22;;;;;;;11.27;6.03;;;588.80;2432.00;;;;;;5109555;28;20020;-78
2023/07/08 05:45:48;;;;;;;10.52;6.00;;;588.80;2432.00;;;;;;5109424;28;20027;-76
2023/07/08 05:48:14;;;;;;;10.65;5.80;;;588.90;2432.00;;;;;;5109547;28;20457;-77
2023/07/08 05:50:40;;;;;;;8.85;5.60;;;588.90;2432.00;;;;;;5093799;28;20032;-78
2023/07/08 05:53:10;;;;;;;10.52;5.88;;;589.00;2432.00;;;;;;5093437;28;20024;-77
2023/07/08 05:55:36;;;;;;;9.52;5.65;;;589.00;2432.00;;;;;;5110178;28;20460;-77
2023/07/08 05:58:02;;;;;;;11.10;5.93;;;589.00;2432.00;;;;;;5113540;28;20375;-76
2023/07/08 06:00:27;;;;;;;9.07;5.78;;;589.10;2432.00;;;;;;5113153;28;20028;-77
2023/07/08 06:02:53;;;;;;;8.50;5.60;;;589.10;2432.00;;;;;;5113410;28;20028;-76
2023/07/08 06:05:19;;;;;;;9.93;6.18;;;589.20;2432.00;;;;;;5113200;28;20024;-77
2023/07/08 06:07:45;;;;;;;10.32;5.63;;;589.20;2432.00;;;;;;5113675;28;20475;-77
2023/07/08 06:10:10;;;;;;;8.23;5.45;;;589.30;2432.00;;;;;;5113239;28;20055;-77
2023/07/08 06:12:36;;;;;;;9.85;5.53;;;589.30;2432.00;;;;;;5113169;28;20024;-76
2023/07/08 06:15:03;;;;;;;8.02;5.63;;;589.40;2432.00;;;;;;5097224;28;20024;-77
2023/07/08 06:17:28;;;;;;;8.98;5.32;;;589.50;2432.00;;;;;;5112707;28;20460;-76
2023/07/08 06:19:54;;;;;;;9.07;5.43;;;589.50;2432.00;;;;;;5112798;28;20080;-78
2023/07/08 06:22:20;;;;;;;10.50;5.70;;;589.50;2432.00;;;;;;5113062;28;20031;-76
2023/07/08 06:24:47;;;;;;;8.88;5.72;;;589.50;2432.00;;;;;;5112897;28;20034;-77
2023/07/08 06:27:13;;;;;;;10.77;5.22;;;589.60;2432.00;;;;;;5096803;28;20421;-76
2023/07/08 06:29:39;;;;;;;8.18;6.00;;;589.70;2432.00;;;;;;5112813;28;20039;-79
2023/07/08 06:32:06;;;;;;;10.98;5.53;;;589.70;2432.00;;;;;;5112876;28;20024;-80
2023/07/08 06:34:32;;;;;;;8.80;5.03;;;614.80;2432.00;;;;;;5112276;28;20519;-76
2023/07/08 06:36:58;;;;;;;9.32;5.60;;;614.40;2432.00;;;;;;5096818;28;20098;-79
2023/07/08 06:39:23;;;;;;;16.63;9.05;;;614.50;2432.00;;;;;;5096982;28;20032;-79
2023/07/08 06:41:49;;;;;;;7.50;5.72;;;614.60;2432.00;;;;;;5112542;28;20024;-80
2023/07/08 06:44:15;;;;;;;9.90;5.30;;;614.60;2432.00;;;;;;5097112;28;20376;-79
2023/07/08 06:46:41;;;;;;;8.95;5.18;;;614.70;2432.00;;;;;;5113440;28;20193;-80
2023/07/08 06:49:08;;;;;;;8.43;5.40;;;614.80;2432.00;;;;;;5112445;28;20036;-79
2023/07/08 06:51:35;;;;;;;6.72;5.03;;;614.80;2432.00;;;;;;5112484;28;20050;-79
2023/07/08 06:54:04;;;;;;;12.48;7.65;;;614.80;2432.00;;;;;;5112848;28;20055;-79
2023/07/08 06:56:31;;;;;;;9.07;5.68;;;614.90;2432.00;;;;;;5111890;28;20067;-80
2023/07/08 06:58:56;;;;;;;13.40;6.18;;;615.10;2432.00;;;;;;5112146;28;20036;-79
2023/07/08 07:01:22;;;;;;;10.07;5.68;;;615.10;2432.00;;;;;;5111705;28;20024;-78
2023/07/08 07:03:48;;;;;;;9.88;5.90;;;615.20;2432.00;;;;;;5111749;28;20029;-80
2023/07/08 07:06:14;;;;;;;12.13;6.03;;;615.30;2432.00;;;;;;5112376;28;20059;-80
2023/07/08 07:08:40;;;;;;;9.90;6.03;;;640.00;2432.00;;;;;;5110380;28;20020;-77
2023/07/08 07:11:06;;;;;;;9.27;5.30;;;640.00;2432.00;;;;;;5112081;28;20036;-78
2023/07/08 07:13:32;;;;;;;6.90;5.40;;;640.10;2432.00;;;;;;5096422;28;20030;-81
2023/07/08 07:15:58;;;;;;;9.35;5.90;;;640.10;2406.40;;;;;;5112408;28;20027;-78
2023/07/08 07:18:24;;;;;;;9.85;5.07;;;640.10;2406.40;;;;;;5095950;28;20380;-79
2023/07/08 07:20:53;;;;;;;8.07;5.30;;;640.20;2380.80;;;;;;5111865;28;20032;-80
2023/07/08 07:23:19;;;;;;;6.95;4.82;;;640.20;2406.40;;;;;;5094446;28;20031;-79
2023/07/08 07:25:49;;;;;;;8.23;4.97;;;640.20;2355.20;;;;;;5096644;28;20032;-81
2023/07/08 07:28:16;;;;;;;8.05;5.18;;;640.30;2380.80;;;;;;5111715;28;20024;-79
2023/07/08 07:30:46;;;;;;;8.75;5.97;;;640.30;2355.20;;;;;;5111730;28;20081;-78
2023/07/08 07:33:12;;;;;;;8.13;5.10;;;640.40;2355.20;;;;;;5108124;28;20049;-78
2023/07/08 07:35:45;;;;;;;11.05;5.75;;;640.50;2329.60;;;;;;5074548;28;20094;-80
2023/07/08 07:38:11;;;;;;;8.15;5.03;;;640.50;2304.00;;;;;;5072953;28;20078;-78
2023/07/08 07:40:39;;;;;;;7.28;4.85;;;640.60;2304.00;;;;;;5073870;28;20052;-79
2023/07/08 07:43:05;;;;;;;8.32;5.30;;;640.70;2304.00;;;;;;5075522;28;20508;-80
2023/07/08 07:45:31;;;;;;;8.35;4.78;;;640.70;2278.40;;;;;;5073933;28;20056;-81
2023/07/08 07:47:57;;;;;;;6.72;5.18;;;640.80;2278.40;;;;;;5074186;28;20078;-80
2023/07/08 07:50:22;;;;;;;9.57;5.38;;;640.70;2278.40;;;;;;5073931;28;20079;-78
2023/07/08 07:52:48;;;;;;;7.00;5.40;;;640.80;2278.40;;;;;;5074045;28;20025;-80
2023/07/08 07:55:14;;;;;;;8.23;5.00;;;640.80;2278.40;;;;;;5074030;28;20032;-80
2023/07/08 07:57:41;;;;;;;9.07;5.28;;;640.90;2278.40;;;;;;5074835;28;20063;-78
2023/07/08 08:00:08;;;;;;;9.27;5.40;;;665.70;2304.00;;;;;;5074276;28;20468;-79
2023/07/08 08:02:34;;;;;;;8.98;5.55;;;665.70;2278.40;;;;;;5076094;28;20048;-79
2023/07/08 08:05:00;;;;;;;10.02;6.43;;;665.70;2278.40;;;;;;5074273;28;20177;-78
2023/07/08 08:07:26;;;;;;;8.93;4.75;;;665.60;2278.40;;;;;;5073772;28;20473;-79
2023/07/08 08:09:52;;;;;;;9.05;4.93;;;665.70;2278.40;;;;;;5073811;28;20052;-80
2023/07/08 08:12:19;;;;;;;7.32;5.38;;;666.00;2304.00;;;;;;5072712;28;20380;-80
2023/07/08 08:14:44;;;;;;;8.77;5.03;;;666.10;2252.80;;;;;;5073968;28;20469;-79
2023/07/08 08:17:10;;;;;;;7.75;4.95;;;666.00;2252.80;;;;;;5075017;28;20035;-79
2023/07/08 08:19:36;;;;;;;7.10;5.10;;;666.00;2252.80;;;;;;5073053;28;20059;-79
2023/07/08 08:22:02;;;;;;;9.30;5.10;;;666.10;2252.80;;;;;;5073445;28;20028;-80
2023/07/08 08:24:28;;;;;;;6.60;5.00;;;;;;;;;;5078632;28;20064;-78
2023/07/08 08:26:54;;;;;;;8.15;4.93;;;;;;;;;;5074416;28;20024;-80
2023/07/08 08:29:20;;;;;;;8.68;4.80;;;;;;;;;;5074470;28;20530;-80
2023/07/08 08:31:47;;;;;;;6.90;4.45;;;;;;;;;;5073366;28;20036;-80
2023/07/08 08:34:13;;;;;;;8.70;5.40;;;;;;;;;;5073095;28;20437;-80
2023/07/08 08:36:39;;;;;;;6.72;4.78;;;;;;;;;;5073343;28;20077;-80
2023/07/08 08:39:05;;;;;;;7.72;5.13;;;;;;;;;;5074860;28;20024;-80
2023/07/08 08:41:33;;;;;;;9.50;5.00;;;;;;;;;;5072888;28;20021;-81
2023/07/08 08:44:00;;;;;;;7.95;4.72;;;;;;;;;;5074578;28;20440;-80
2023/07/08 08:46:38;;;;;;;8.25;4.80;;;;;;;;;;5072608;28;20027;-81
2023/07/08 08:49:23;;;;;;;7.10;4.97;;;;;;;;;;5073879;28;20369;-80
2023/07/08 08:51:50;;;;;;;6.85;5.07;;;;;;;;;;5074282;28;20039;-79
2023/07/08 08:54:16;;;;;;;9.25;4.95;;;;;;;;;;5073135;28;20472;-78
2023/07/08 08:56:51;;;;;;;5.65;4.45;;;691.90;2201.60;;;;;;5073731;28;20035;-78
2023/07/08 08:59:38;;;;;;;6.78;4.72;;;691.90;2176.00;;;;;;5073548;28;20521;-78
2023/07/08 09:02:26;;;;;;;7.28;4.40;;;716.80;2201.60;;;;;;5072642;28;20036;-78
2023/07/08 09:04:52;;;;;;;7.78;4.88;;;717.00;2176.00;;;;;;5074435;28;20032;-78
2023/07/08 09:07:20;;;;;;;8.27;4.50;;;717.00;2176.00;;;;;;5073905;28;20469;-76
2023/07/08 09:09:46;;;;;;;6.85;4.95;;;;;;;;;;5072672;28;20431;-78
2023/07/08 09:12:18;;;;;;;10.65;4.72;;;;;;;;;;5072967;28;20020;-79
2023/07/08 09:14:44;;;;;;;9.05;5.32;;;717.20;2150.40;;;;;;5072059;28;20043;-78
2023/07/08 09:17:34;;;;;;;8.85;4.43;;;717.40;2150.40;;;;;;5072643;28;20020;-76
2023/07/08 09:20:03;;;;;;;9.48;5.80;;;;;;;;;;5073940;28;20484;-76
2023/07/08 09:23:03;;;;;;;6.95;4.40;;;742.50;2124.80;;;;;;5073424;28;20017;-78
2023/07/08 09:25:35;;;;;;;18.23;13.45;;;742.50;2124.80;;;;;;5070011;28;20033;-80
2023/07/08 09:28:01;;;;;;;8.82;6.43;;;717.70;2124.80;;;;;;5072488;28;20488;-79
2023/07/08 09:30:30;;;;;;;9.35;6.65;;;717.50;2150.40;;;;;;5072395;28;20036;-79
2023/07/08 09:32:56;;;;;;;15.65;12.85;;;717.40;2150.40;;;;;;5072290;28;20028;-80
2023/07/08 09:35:24;;;;;;;11.55;8.13;;;717.20;2073.60;;;;;;5072296;28;20047;-80
2023/07/08 09:37:50;;;;;;;7.80;5.32;;;692.00;2048.00;;;;;;5074441;28;20453;-79
2023/07/08 09:40:30;;;;;;;11.50;7.72;;;691.80;2073.60;;;;;;5074010;28;20055;-79
2023/07/08 09:43:13;;;;;;;8.43;5.35;;;691.70;2073.60;;;;;;5073435;28;20025;-78
2023/07/08 09:45:47;;;;;;;8.23;5.10;;;691.60;2099.20;;;;;;5072616;28;20166;-79
2023/07/08 09:48:39;;;;;;;10.77;5.18;;;691.60;2124.80;;;;;;5072279;28;20119;-80
2023/07/08 09:51:07;;;;;;;6.72;4.78;;;692.10;2124.80;;;;;;5069732;28;20044;-77
2023/07/08 09:53:33;;;;;;;6.85;4.78;;;717.00;2099.20;;;;;;5071409;28;20115;-78
2023/07/08 09:56:02;;;;;;;7.15;4.82;;;717.20;2022.40;;;;;;5072000;28;20032;-80
2023/07/08 09:58:43;;;;;;;6.63;4.50;;;717.40;2022.40;;;;;;5074245;28;20024;-78
2023/07/08 10:01:23;;;;;;;8.05;4.68;;;717.50;2022.40;;;;;;5093473;28;20071;-78
2023/07/08 10:03:49;;;;;;;7.28;4.82;;;717.60;2048.00;;;;;;5093674;28;20032;-77
2023/07/08 10:06:22;;;;;;;7.50;4.72;;;717.70;2022.40;;;;;;5095843;28;20070;-79
2023/07/08 10:08:48;;;;;;;8.93;5.50;;;742.60;2073.60;;;;;;5097064;28;20047;-77
2023/07/08 10:11:31;;;;;;;10.82;5.50;;;742.70;2048.00;;;;;;5097429;28;20067;-77
2023/07/08 10:14:02;;;;;;;8.45;4.80;;;742.60;1996.80;;;;;;5093222;28;20035;-79
2023/07/08 10:16:31;;;;;;;6.57;5.18;;;742.70;1996.80;;;;;;5093237;28;20024;-77
2023/07/08 10:18:58;;;;;;;7.82;5.15;;;742.70;1996.80;;;;;;5091808;28;20066;-77
2023/07/08 10:21:32;;;;;;;11.40;6.00;;;743.30;2048.00;;;;;;5105270;28;20537;-78
2023/07/08 10:24:03;;;;;;;7.45;4.63;;;;;;;;;;5109421;28;20426;-79
2023/07/08 10:26:31;;;;;;;9.07;4.60;;;;;;;;;;5093349;28;20472;-79
2023/07/08 10:28:57;;;;;;;6.50;4.45;;;;;;;;;;5106639;28;20044;-78
2023/07/08 10:31:29;;;;;;;7.20;4.80;;;;;;;;;;5073058;28;20364;-79
2023/07/08 10:34:14;;;;;;;8.07;5.22;;;768.00;1996.80;;;;;;5088898;28;20157;-80
2023/07/08 10:37:02;;;;;;;7.20;5.03;;;743.30;1996.80;;;;;;5088724;28;20028;-80
2023/07/08 10:39:46;;;;;;;7.00;5.38;;;743.30;1971.20;;;;;;5091969;28;20036;-78
2023/07/08 10:42:18;;;;;;;7.30;4.55;;;768.00;1971.20;;;;;;5095265;28;20047;-79
2023/07/08 10:44:43;;;;;;;;;;;768.40;1945.60;;;;;;5102524;27;20028;-79
2023/07/08 10:47:16;;;;;;;10.07;5.07;;;768.10;1868.80;;;;;;5096399;28;19904;-79
2023/07/08 10:49:54;;;;;;;6.38;4.72;;;768.00;1894.40;;;;;;5130878;27;20028;-78
2023/07/08 10:52:30;;;;;;;7.00;5.28;;;743.20;1945.60;;;;;;5099122;28;20027;-79
2023/07/08 10:55:20;;;;;;;9.13;4.85;;;742.90;1894.40;;;;;;5114770;28;20110;-77
2023/07/08 10:57:49;;;;;;;6.97;4.57;;;;;;;;;;5112863;28;20024;-79
2023/07/08 11:00:21;;;;;;;6.85;4.18;;;;;;;;;;5096486;28;20032;-79
2023/07/08 11:03:05;;;;;;;7.80;4.80;;;742.80;1894.40;;;;;;5097774;28;20476;-79
2023/07/08 11:06:03;;;;;;;6.47;4.10;;;742.80;1971.20;;;;;;5096371;28;20391;-79
2023/07/08 11:08:37;;;;;;;6.95;4.13;;;742.60;1971.20;;;;;;5091674;28;20032;-79
2023/07/08 11:11:38;;;;;;;8.25;4.38;;;742.50;1945.60;;;;;;5106055;28;20024;-79
2023/07/08 11:14:18;;;;;;;6.63;4.28;;;742.80;1843.20;;;;;;5082835;28;20512;-77
2023/07/08 11:16:51;;;;;;;5.78;4.00;;;742.60;1868.80;;;;;;5088914;28;20024;-77
2023/07/08 11:19:30;;;;;;;7.07;4.57;;;743.10;1843.20;;;;;;5079075;28;20038;-79
2023/07/08 11:22:00;;;;;;;5.97;3.80;;;743.30;1817.60;;;;;;5088552;28;20108;-78
2023/07/08 11:24:47;;;;;;;6.40;3.85;;;768.00;1843.20;;;;;;5085857;28;20028;-82
2023/07/08 11:27:31;;;;;;;7.28;4.50;;;768.60;1868.80;;;;;;5080486;28;20033;-79
2023/07/08 11:30:14;;;;;;;5.93;3.90;;;768.90;1894.40;;;;;;5089414;28;20032;-79
2023/07/08 11:32:42;;;;;;;7.00;3.95;;;;;;;;;;5088131;28;20025;-79
2023/07/08 11:35:16;;;;;;;6.43;4.90;;;;;;;;;;5077090;28;20020;-82
2023/07/08 11:37:42;;;;;;;6.13;4.03;;;;;;;;;;5094512;28;20016;-79
2023/07/08 11:40:10;;;;;;;8.65;4.85;;;;;;;;;;5095903;28;20101;-81
2023/07/08 11:42:40;;;;;;;5.75;4.13;;;;;;;;;;5082918;28;20024;-82
2023/07/08 11:45:24;;;;;;;8.60;4.53;;;;;;;;;;5074404;28;20082;-81
2023/07/08 11:47:50;;;;;;;8.13;4.38;;;;;;;;;;5080925;28;20035;-81
2023/07/08 11:50:22;;;;;;;6.43;3.58;;;;;;;;;;5096312;28;20031;-81
2023/07/08 11:52:53;;;;;;;5.68;3.53;;;;;;;;;;5093070;28;20019;-85
2023/07/08 11:55:28;;;;;;;7.68;3.67;;;;;;;;;;5109542;28;20025;-80
2023/07/08 11:57:57;;;;;;;6.90;4.00;;;;;;;;;;5095394;28;20036;-82
2023/07/08 12:00:26;;;;;;;6.13;4.15;;;;;;;;;;5096115;28;20510;-79
2023/07/08 12:02:52;;;;;;;5.90;3.47;;;;;;;;;;5094506;28;20031;-80
2023/07/08 12:05:28;;;;;;;5.75;3.97;;;;;;;;;;5094401;28;20077;-80
2023/07/08 12:08:03;;;;;;;6.75;3.90;;;;;;;;;;5097515;28;20423;-80
2023/07/08 12:10:35;;;;;;;5.18;3.90;;;;;;;;;;5092017;28;20044;-82
2023/07/08 12:13:01;;;;;;;5.90;3.10;;;;;;;;;;5097490;28;20035;-81
2023/07/08 12:15:28;;;;;;;4.95;3.50;;;;;;;;;;5094498;28;20024;-81
2023/07/08 12:17:56;;;;;;;5.18;3.40;;;;;;;;;;5094152;28;20031;-80
2023/07/08 12:20:32;;;;;;;5.03;3.28;;;820.00;1715.20;;;;;;5092676;28;20031;-82
2023/07/08 12:22:58;;;;;;;4.32;3.03;;;;;;;;;;5108697;28;20038;-83
2023/07/08 12:25:27;;;;;;;5.47;3.17;;;;;;;;;;5109792;28;20028;-81
2023/07/08 12:27:53;;;;;;;4.53;3.13;;;;;;;;;;5090898;28;20420;-82
2023/07/08 12:30:20;;;;;;;9.68;3.42;;;;;;;;;;5084677;28;20424;-79
2023/07/08 12:32:46;;;;;;;6.60;3.08;;;;;;;;;;5093450;28;20024;-81
2023/07/08 12:35:22;;;;;;;6.35;3.42;;;;;;;;;;5094357;28;20024;-78
2023/07/08 12:37:50;;;;;;;6.63;3.92;;;845.00;1638.40;;;;;;5098210;28;20030;-81
2023/07/08 12:40:16;;;;;;;5.30;3.25;;;845.30;1612.80;;;;;;5098420;28;20039;-83
2023/07/08 12:42:42;;;;;;;7.47;3.33;;;845.10;1664.00;;;;;;5098955;28;20111;-79
2023/07/08 12:45:19;;;;;;;5.82;3.05;;;;;;;;;;5094705;28;20460;-80
2023/07/08 12:47:45;;;;;;;10.75;3.10;;;;;;;;;;5094168;28;20035;-80